sensor_id;sensor_type;location;lat;lon;timestamp;P1;durP1;ratioP1;P2;durP2;ratioP2
70605;SDS011;58173;52.500;5.494;2023-07-20T00:06:40;4.22;;;1.83;;
70605;SDS011;58173;52.500;5.494;2023-07-20T00:09:48;3.22;;;1.75;;
70605;SDS011;58173;52.500;5.494;2023-07-20T00:13:18;3.78;;;1.70;;
70605;SDS011;58173;52.500;5.494;2023-07-20T00:17:07;5.57;;;1.80;;
70605;SDS011;58173;52.500;5.494;2023-07-20T00:23:36;3.85;;;1.63;;
70605;SDS011;58173;52.500;5.494;2023-07-20T00:26:03;5.28;;;1.65;;
70605;SDS011;58173;52.500;5.494;2023-07-20T00:28:30;4.45;;;1.80;;
70605;SDS011;58173;52.500;5.494;2023-07-20T00:31:10;4.00;;;1.73;;
70605;SDS011;58173;52.500;5.494;2023-07-20T00:39:27;3.38;;;1.65;;
70605;SDS011;58173;52.500;5.494;2023-07-20T00:41:55;4.03;;;1.77;;
70605;SDS011;58173;52.500;5.494;2023-07-20T00:44:25;3.53;;;1.60;;
70605;SDS011;58173;52.500;5.494;2023-07-20T00:46:52;3.30;;;1.45;;
70605;SDS011;58173;52.500;5.494;2023-07-20T00:49:30;3.63;;;1.30;;
70605;SDS011;58173;52.500;5.494;2023-07-20T00:52:00;3.03;;;1.30;;
70605;SDS011;58173;52.500;5.494;2023-07-20T00:54:28;3.47;;;1.48;;
70605;SDS011;58173;52.500;5.494;2023-07-20T00:57:04;3.45;;;1.40;;
70605;SDS011;58173;52.500;5.494;2023-07-20T00:59:36;3.40;;;1.55;;
70605;SDS011;58173;52.500;5.494;2023-07-20T01:02:03;2.47;;;1.30;;
70605;SDS011;58173;52.500;5.494;2023-07-20T01:04:34;3.33;;;1.33;;
70605;SDS011;58173;52.500;5.494;2023-07-20T01:07:17;4.43;;;1.80;;
70605;SDS011;58173;52.500;5.494;2023-07-20T01:15:08;3.25;;;1.33;;
70605;SDS011;58173;52.500;5.494;2023-07-20T01:17:37;1.90;;;1.10;;
70605;SDS011;58173;52.500;5.494;2023-07-20T01:20:08;3.72;;;1.30;;
70605;SDS011;58173;52.500;5.494;2023-07-20T01:27:49;2.78;;;1.40;;
70605;SDS011;58173;52.500;5.494;2023-07-20T01:33:13;2.72;;;1.50;;
70605;SDS011;58173;52.500;5.494;2023-07-20T01:35:42;2.60;;;1.33;;
70605;SDS011;58173;52.500;5.494;2023-07-20T01:38:12;3.70;;;1.30;;
70605;SDS011;58173;52.500;5.494;2023-07-20T01:40:40;3.22;;;1.40;;
70605;SDS011;58173;52.500;5.494;2023-07-20T01:43:08;2.97;;;1.55;;
70605;SDS011;58173;52.500;5.494;2023-07-20T01:45:36;2.83;;;1.52;;
70605;SDS011;58173;52.500;5.494;2023-07-20T01:48:06;3.15;;;1.40;;
70605;SDS011;58173;52.500;5.494;2023-07-20T01:50:34;2.97;;;1.48;;
70605;SDS011;58173;52.500;5.494;2023-07-20T01:53:01;3.40;;;1.50;;
70605;SDS011;58173;52.500;5.494;2023-07-20T01:55:33;3.60;;;1.30;;
70605;SDS011;58173;52.500;5.494;2023-07-20T01:58:07;4.05;;;1.77;;
70605;SDS011;58173;52.500;5.494;2023-07-20T02:00:44;3.90;;;1.63;;
70605;SDS011;58173;52.500;5.494;2023-07-20T02:03:15;3.72;;;1.65;;
70605;SDS011;58173;52.500;5.494;2023-07-20T02:05:52;4.43;;;2.10;;
70605;SDS011;58173;52.500;5.494;2023-07-20T02:08:20;4.32;;;2.00;;
70605;SDS011;58173;52.500;5.494;2023-07-20T02:10:49;4.50;;;2.00;;
70605;SDS011;58173;52.500;5.494;2023-07-20T02:13:19;5.45;;;1.95;;
70605;SDS011;58173;52.500;5.494;2023-07-20T02:15:53;7.22;;;2.00;;
70605;SDS011;58173;52.500;5.494;2023-07-20T02:18:20;3.90;;;1.70;;
70605;SDS011;58173;52.500;5.494;2023-07-20T02:20:53;3.63;;;1.80;;
70605;SDS011;58173;52.500;5.494;2023-07-20T02:23:20;5.75;;;2.08;;
70605;SDS011;58173;52.500;5.494;2023-07-20T02:25:53;5.90;;;2.00;;
70605;SDS011;58173;52.500;5.494;2023-07-20T02:28:20;4.07;;;1.92;;
70605;SDS011;58173;52.500;5.494;2023-07-20T02:30:47;4.55;;;1.70;;
70605;SDS011;58173;52.500;5.494;2023-07-20T02:33:16;4.22;;;1.85;;
70605;SDS011;58173;52.500;5.494;2023-07-20T02:35:43;4.43;;;1.95;;
70605;SDS011;58173;52.500;5.494;2023-07-20T02:38:12;5.03;;;2.00;;
70605;SDS011;58173;52.500;5.494;2023-07-20T02:40:39;4.32;;;2.08;;
70605;SDS011;58173;52.500;5.494;2023-07-20T02:43:10;4.43;;;1.90;;
70605;SDS011;58173;52.500;5.494;2023-07-20T02:48:38;5.80;;;1.92;;
70605;SDS011;58173;52.500;5.494;2023-07-20T02:51:05;3.85;;;1.70;;
70605;SDS011;58173;52.500;5.494;2023-07-20T02:53:33;4.15;;;1.60;;
70605;SDS011;58173;52.500;5.494;2023-07-20T02:56:01;4.47;;;1.90;;
70605;SDS011;58173;52.500;5.494;2023-07-20T02:58:39;4.88;;;1.88;;
70605;SDS011;58173;52.500;5.494;2023-07-20T03:01:09;4.63;;;2.05;;
70605;SDS011;58173;52.500;5.494;2023-07-20T03:03:47;3.33;;;1.80;;
70605;SDS011;58173;52.500;5.494;2023-07-20T03:09:25;4.03;;;1.80;;
70605;SDS011;58173;52.500;5.494;2023-07-20T03:12:00;5.50;;;2.05;;
70605;SDS011;58173;52.500;5.494;2023-07-20T03:14:31;4.80;;;2.00;;
70605;SDS011;58173;52.500;5.494;2023-07-20T03:16:58;4.57;;;1.90;;
70605;SDS011;58173;52.500;5.494;2023-07-20T03:19:26;5.75;;;2.17;;
70605;SDS011;58173;52.500;5.494;2023-07-20T03:21:54;3.90;;;1.90;;
70605;SDS011;58173;52.500;5.494;2023-07-20T03:24:22;5.50;;;2.05;;
70605;SDS011;58173;52.500;5.494;2023-07-20T03:26:50;5.28;;;1.88;;
70605;SDS011;58173;52.500;5.494;2023-07-20T03:29:17;5.20;;;2.30;;
70605;SDS011;58173;52.500;5.494;2023-07-20T03:31:55;5.00;;;2.10;;
70605;SDS011;58173;52.500;5.494;2023-07-20T03:34:25;6.85;;;2.03;;
70605;SDS011;58173;52.500;5.494;2023-07-20T03:36:52;5.55;;;2.20;;
70605;SDS011;58173;52.500;5.494;2023-07-20T03:39:24;5.35;;;2.28;;
70605;SDS011;58173;52.500;5.494;2023-07-20T03:41:51;4.95;;;2.30;;
70605;SDS011;58173;52.500;5.494;2023-07-20T03:44:33;6.20;;;2.22;;
70605;SDS011;58173;52.500;5.494;2023-07-20T03:47:02;5.40;;;2.30;;
70605;SDS011;58173;52.500;5.494;2023-07-20T03:49:34;4.22;;;2.03;;
70605;SDS011;58173;52.500;5.494;2023-07-20T04:00:44;7.70;;;2.40;;
70605;SDS011;58173;52.500;5.494;2023-07-20T04:03:20;5.30;;;2.13;;
70605;SDS011;58173;52.500;5.494;2023-07-20T04:05:49;5.45;;;2.40;;
70605;SDS011;58173;52.500;5.494;2023-07-20T04:08:25;6.43;;;2.38;;
70605;SDS011;58173;52.500;5.494;2023-07-20T04:10:53;4.50;;;2.38;;
70605;SDS011;58173;52.500;5.494;2023-07-20T04:13:20;6.65;;;2.30;;
70605;SDS011;58173;52.500;5.494;2023-07-20T04:15:50;9.05;;;2.33;;
70605;SDS011;58173;52.500;5.494;2023-07-20T04:18:18;7.60;;;2.78;;
70605;SDS011;58173;52.500;5.494;2023-07-20T04:20:45;5.68;;;2.22;;
70605;SDS011;58173;52.500;5.494;2023-07-20T04:23:16;6.10;;;2.38;;
70605;SDS011;58173;52.500;5.494;2023-07-20T04:25:43;8.95;;;2.67;;
70605;SDS011;58173;52.500;5.494;2023-07-20T04:28:35;6.72;;;2.80;;
70605;SDS011;58173;52.500;5.494;2023-07-20T04:31:12;6.75;;;2.72;;
70605;SDS011;58173;52.500;5.494;2023-07-20T04:33:41;6.88;;;3.03;;
70605;SDS011;58173;52.500;5.494;2023-07-20T04:36:15;9.23;;;3.05;;
70605;SDS011;58173;52.500;5.494;2023-07-20T04:38:46;7.60;;;2.90;;
70605;SDS011;58173;52.500;5.494;2023-07-20T04:41:18;7.68;;;3.47;;
70605;SDS011;58173;52.500;5.494;2023-07-20T04:43:50;8.30;;;3.90;;
70605;SDS011;58173;52.500;5.494;2023-07-20T04:46:28;7.50;;;3.30;;
70605;SDS011;58173;52.500;5.494;2023-07-20T04:48:57;7.72;;;2.97;;
70605;SDS011;58173;52.500;5.494;2023-07-20T04:51:27;8.77;;;3.45;;
70605;SDS011;58173;52.500;5.494;2023-07-20T04:54:00;9.50;;;3.60;;
70605;SDS011;58173;52.500;5.494;2023-07-20T04:56:35;8.15;;;3.10;;
70605;SDS011;58173;52.500;5.494;2023-07-20T04:59:08;7.60;;;3.90;;
70605;SDS011;58173;52.500;5.494;2023-07-20T05:01:35;6.93;;;3.22;;
70605;SDS011;58173;52.500;5.494;2023-07-20T05:04:03;6.65;;;3.00;;
70605;SDS011;58173;52.500;5.494;2023-07-20T05:06:34;8.80;;;3.08;;
70605;SDS011;58173;52.500;5.494;2023-07-20T05:09:08;6.93;;;2.90;;
70605;SDS011;58173;52.500;5.494;2023-07-20T05:11:40;5.68;;;2.80;;
70605;SDS011;58173;52.500;5.494;2023-07-20T05:14:16;7.50;;;3.10;;
70605;SDS011;58173;52.500;5.494;2023-07-20T05:16:44;6.18;;;2.95;;
70605;SDS011;58173;52.500;5.494;2023-07-20T05:19:14;7.10;;;3.38;;
70605;SDS011;58173;52.500;5.494;2023-07-20T05:21:42;8.27;;;3.47;;
70605;SDS011;58173;52.500;5.494;2023-07-20T05:24:09;9.90;;;3.70;;
70605;SDS011;58173;52.500;5.494;2023-07-20T05:26:40;8.48;;;3.83;;
70605;SDS011;58173;52.500;5.494;2023-07-20T05:29:08;7.03;;;3.50;;
70605;SDS011;58173;52.500;5.494;2023-07-20T05:31:35;7.35;;;3.17;;
70605;SDS011;58173;52.500;5.494;2023-07-20T05:34:02;6.68;;;3.03;;
70605;SDS011;58173;52.500;5.494;2023-07-20T05:36:30;7.78;;;2.80;;
70605;SDS011;58173;52.500;5.494;2023-07-20T05:38:57;6.40;;;2.58;;
70605;SDS011;58173;52.500;5.494;2023-07-20T05:41:25;6.35;;;2.58;;
70605;SDS011;58173;52.500;5.494;2023-07-20T05:43:52;7.60;;;2.72;;
70605;SDS011;58173;52.500;5.494;2023-07-20T05:46:19;5.80;;;2.60;;
70605;SDS011;58173;52.500;5.494;2023-07-20T05:48:50;6.45;;;2.42;;
70605;SDS011;58173;52.500;5.494;2023-07-20T05:51:23;6.13;;;3.15;;
70605;SDS011;58173;52.500;5.494;2023-07-20T05:53:51;7.05;;;2.50;;
70605;SDS011;58173;52.500;5.494;2023-07-20T05:56:20;6.90;;;2.67;;
70605;SDS011;58173;52.500;5.494;2023-07-20T05:58:48;7.47;;;2.80;;
70605;SDS011;58173;52.500;5.494;2023-07-20T06:01:46;5.70;;;2.78;;
70605;SDS011;58173;52.500;5.494;2023-07-20T06:04:30;5.57;;;2.45;;
70605;SDS011;58173;52.500;5.494;2023-07-20T06:07:44;4.68;;;2.25;;
70605;SDS011;58173;52.500;5.494;2023-07-20T06:19:40;7.38;;;2.10;;
70605;SDS011;58173;52.500;5.494;2023-07-20T06:22:13;7.20;;;2.22;;
70605;SDS011;58173;52.500;5.494;2023-07-20T06:24:44;6.28;;;2.20;;
70605;SDS011;58173;52.500;5.494;2023-07-20T06:27:23;4.70;;;2.00;;
70605;SDS011;58173;52.500;5.494;2023-07-20T06:29:50;6.53;;;1.98;;
70605;SDS011;58173;52.500;5.494;2023-07-20T06:32:34;3.97;;;1.42;;
70605;SDS011;58173;52.500;5.494;2023-07-20T06:35:01;4.97;;;1.60;;
70605;SDS011;58173;52.500;5.494;2023-07-20T06:37:32;3.90;;;1.50;;
70605;SDS011;58173;52.500;5.494;2023-07-20T06:40:02;3.15;;;1.50;;
70605;SDS011;58173;52.500;5.494;2023-07-20T06:42:57;3.70;;;1.48;;
70605;SDS011;58173;52.500;5.494;2023-07-20T06:45:30;3.20;;;1.15;;
70605;SDS011;58173;52.500;5.494;2023-07-20T06:48:06;2.85;;;0.90;;
70605;SDS011;58173;52.500;5.494;2023-07-20T06:50:41;1.35;;;0.90;;
70605;SDS011;58173;52.500;5.494;2023-07-20T06:53:12;3.03;;;1.00;;
70605;SDS011;58173;52.500;5.494;2023-07-20T06:56:32;2.35;;;0.80;;
70605;SDS011;58173;52.500;5.494;2023-07-20T07:01:55;2.42;;;0.95;;
70605;SDS011;58173;52.500;5.494;2023-07-20T07:04:49;2.90;;;1.00;;
70605;SDS011;58173;52.500;5.494;2023-07-20T07:07:26;2.20;;;0.93;;
70605;SDS011;58173;52.500;5.494;2023-07-20T07:09:53;3.97;;;1.00;;
70605;SDS011;58173;52.500;5.494;2023-07-20T07:12:23;1.77;;;1.00;;
70605;SDS011;58173;52.500;5.494;2023-07-20T07:14:51;2.28;;;0.80;;
70605;SDS011;58173;52.500;5.494;2023-07-20T07:17:19;1.27;;;0.77;;
70605;SDS011;58173;52.500;5.494;2023-07-20T07:19:47;2.35;;;1.00;;
70605;SDS011;58173;52.500;5.494;2023-07-20T07:22:15;1.90;;;1.00;;
70605;SDS011;58173;52.500;5.494;2023-07-20T07:24:42;2.40;;;0.90;;
70605;SDS011;58173;52.500;5.494;2023-07-20T07:27:12;1.40;;;0.90;;
70605;SDS011;58173;52.500;5.494;2023-07-20T07:29:42;1.70;;;0.85;;
70605;SDS011;58173;52.500;5.494;2023-07-20T07:32:13;2.60;;;1.10;;
70605;SDS011;58173;52.500;5.494;2023-07-20T07:34:43;2.13;;;0.80;;
70605;SDS011;58173;52.500;5.494;2023-07-20T07:37:13;3.13;;;1.05;;
70605;SDS011;58173;52.500;5.494;2023-07-20T07:39:40;2.17;;;0.80;;
70605;SDS011;58173;52.500;5.494;2023-07-20T07:42:08;2.92;;;0.98;;
70605;SDS011;58173;52.500;5.494;2023-07-20T07:44:39;2.85;;;1.00;;
70605;SDS011;58173;52.500;5.494;2023-07-20T07:47:10;1.75;;;0.73;;
70605;SDS011;58173;52.500;5.494;2023-07-20T07:49:57;1.95;;;1.13;;
70605;SDS011;58173;52.500;5.494;2023-07-20T07:52:27;1.10;;;0.80;;
70605;SDS011;58173;52.500;5.494;2023-07-20T07:54:54;2.92;;;0.90;;
70605;SDS011;58173;52.500;5.494;2023-07-20T07:57:23;1.50;;;0.80;;
70605;SDS011;58173;52.500;5.494;2023-07-20T07:59:53;1.73;;;0.80;;
70605;SDS011;58173;52.500;5.494;2023-07-20T08:02:22;3.17;;;1.00;;
70605;SDS011;58173;52.500;5.494;2023-07-20T08:04:49;3.42;;;0.80;;
70605;SDS011;58173;52.500;5.494;2023-07-20T08:07:22;1.05;;;0.80;;
70605;SDS011;58173;52.500;5.494;2023-07-20T08:09:49;2.20;;;0.90;;
70605;SDS011;58173;52.500;5.494;2023-07-20T08:12:20;1.60;;;0.80;;
70605;SDS011;58173;52.500;5.494;2023-07-20T08:15:06;1.70;;;0.70;;
70605;SDS011;58173;52.500;5.494;2023-07-20T08:17:37;1.70;;;0.80;;
70605;SDS011;58173;52.500;5.494;2023-07-20T08:20:04;1.63;;;0.70;;
70605;SDS011;58173;52.500;5.494;2023-07-20T08:22:32;1.50;;;0.75;;
70605;SDS011;58173;52.500;5.494;2023-07-20T08:25:00;3.35;;;0.80;;
70605;SDS011;58173;52.500;5.494;2023-07-20T08:27:27;1.48;;;0.70;;
70605;SDS011;58173;52.500;5.494;2023-07-20T08:29:55;1.23;;;0.70;;
70605;SDS011;58173;52.500;5.494;2023-07-20T08:32:29;2.88;;;0.90;;
70605;SDS011;58173;52.500;5.494;2023-07-20T08:34:57;1.23;;;0.70;;
70605;SDS011;58173;52.500;5.494;2023-07-20T08:37:26;1.50;;;0.90;;
70605;SDS011;58173;52.500;5.494;2023-07-20T08:39:54;1.90;;;0.80;;
70605;SDS011;58173;52.500;5.494;2023-07-20T08:42:21;2.33;;;0.88;;
70605;SDS011;58173;52.500;5.494;2023-07-20T08:44:52;1.40;;;0.80;;
70605;SDS011;58173;52.500;5.494;2023-07-20T08:47:50;1.40;;;0.90;;
70605;SDS011;58173;52.500;5.494;2023-07-20T08:50:17;1.80;;;0.90;;
70605;SDS011;58173;52.500;5.494;2023-07-20T08:52:45;1.15;;;0.80;;
70605;SDS011;58173;52.500;5.494;2023-07-20T08:55:14;3.30;;;0.90;;
70605;SDS011;58173;52.500;5.494;2023-07-20T08:57:44;2.28;;;0.80;;
70605;SDS011;58173;52.500;5.494;2023-07-20T09:00:43;2.50;;;0.80;;
70605;SDS011;58173;52.500;5.494;2023-07-20T09:06:05;2.65;;;0.98;;
70605;SDS011;58173;52.500;5.494;2023-07-20T09:08:33;2.25;;;0.70;;
70605;SDS011;58173;52.500;5.494;2023-07-20T09:11:03;1.75;;;0.80;;
70605;SDS011;58173;52.500;5.494;2023-07-20T09:13:35;1.00;;;0.73;;
70605;SDS011;58173;52.500;5.494;2023-07-20T09:16:05;1.67;;;0.68;;
70605;SDS011;58173;52.500;5.494;2023-07-20T09:18:32;1.27;;;0.80;;
70605;SDS011;58173;52.500;5.494;2023-07-20T09:21:04;1.52;;;0.88;;
70605;SDS011;58173;52.500;5.494;2023-07-20T09:23:32;2.22;;;0.82;;
70605;SDS011;58173;52.500;5.494;2023-07-20T09:26:19;3.72;;;0.80;;
70605;SDS011;58173;52.500;5.494;2023-07-20T09:28:48;2.10;;;0.73;;
70605;SDS011;58173;52.500;5.494;2023-07-20T09:31:17;2.40;;;1.00;;
70605;SDS011;58173;52.500;5.494;2023-07-20T09:53:34;3.08;;;0.82;;
70605;SDS011;58173;52.500;5.494;2023-07-20T09:56:02;2.22;;;0.88;;
70605;SDS011;58173;52.500;5.494;2023-07-20T09:58:32;1.55;;;0.85;;
70605;SDS011;58173;52.500;5.494;2023-07-20T10:01:04;2.35;;;0.80;;
70605;SDS011;58173;52.500;5.494;2023-07-20T10:03:36;2.78;;;1.00;;
70605;SDS011;58173;52.500;5.494;2023-07-20T10:06:08;2.17;;;1.00;;
70605;SDS011;58173;52.500;5.494;2023-07-20T10:08:38;1.65;;;1.08;;
70605;SDS011;58173;52.500;5.494;2023-07-20T10:11:09;1.65;;;0.88;;
70605;SDS011;58173;52.500;5.494;2023-07-20T10:13:45;3.10;;;1.00;;
70605;SDS011;58173;52.500;5.494;2023-07-20T10:16:22;1.95;;;0.80;;
70605;SDS011;58173;52.500;5.494;2023-07-20T10:47:09;1.15;;;0.90;;
70605;SDS011;58173;52.500;5.494;2023-07-20T10:50:45;2.40;;;0.85;;
70605;SDS011;58173;52.500;5.494;2023-07-20T11:02:17;1.27;;;0.63;;
70605;SDS011;58173;52.500;5.494;2023-07-20T11:19:22;1.33;;;0.70;;
70605;SDS011;58173;52.500;5.494;2023-07-20T11:29:01;1.83;;;0.90;;
70605;SDS011;58173;52.500;5.494;2023-07-20T11:32:02;1.83;;;0.80;;
70605;SDS011;58173;52.500;5.494;2023-07-20T11:34:39;0.80;;;0.80;;
70605;SDS011;58173;52.500;5.494;2023-07-20T11:40:45;1.45;;;0.75;;
70605;SDS011;58173;52.500;5.494;2023-07-20T11:43:13;1.10;;;0.80;;
70605;SDS011;58173;52.500;5.494;2023-07-20T11:46:10;1.80;;;0.82;;
70605;SDS011;58173;52.500;5.494;2023-07-20T11:48:40;2.40;;;1.10;;
70605;SDS011;58173;52.500;5.494;2023-07-20T11:51:26;1.33;;;0.80;;
70605;SDS011;58173;52.500;5.494;2023-07-20T11:53:55;2.58;;;0.90;;
70605;SDS011;58173;52.500;5.494;2023-07-20T11:56:25;2.65;;;0.95;;
70605;SDS011;58173;52.500;5.494;2023-07-20T11:58:59;1.80;;;1.10;;
70605;SDS011;58173;52.500;5.494;2023-07-20T12:01:28;2.58;;;1.00;;
70605;SDS011;58173;52.500;5.494;2023-07-20T12:03:59;2.03;;;1.00;;
70605;SDS011;58173;52.500;5.494;2023-07-20T12:06:28;2.85;;;1.00;;
70605;SDS011;58173;52.500;5.494;2023-07-20T12:09:01;3.33;;;1.05;;
70605;SDS011;58173;52.500;5.494;2023-07-20T12:11:55;3.38;;;0.90;;
70605;SDS011;58173;52.500;5.494;2023-07-20T12:14:25;2.53;;;1.00;;
70605;SDS011;58173;52.500;5.494;2023-07-20T12:19:24;2.85;;;1.20;;
70605;SDS011;58173;52.500;5.494;2023-07-20T12:21:56;3.42;;;1.23;;
70605;SDS011;58173;52.500;5.494;2023-07-20T12:24:25;2.47;;;0.85;;
70605;SDS011;58173;52.500;5.494;2023-07-20T12:26:55;3.25;;;1.10;;
70605;SDS011;58173;52.500;5.494;2023-07-20T12:29:26;1.88;;;0.80;;
70605;SDS011;58173;52.500;5.494;2023-07-20T12:31:53;3.28;;;0.90;;
70605;SDS011;58173;52.500;5.494;2023-07-20T12:34:21;1.55;;;0.95;;
70605;SDS011;58173;52.500;5.494;2023-07-20T12:36:49;2.25;;;1.20;;
70605;SDS011;58173;52.500;5.494;2023-07-20T12:39:17;2.78;;;1.15;;
70605;SDS011;58173;52.500;5.494;2023-07-20T12:41:44;2.40;;;0.95;;
70605;SDS011;58173;52.500;5.494;2023-07-20T12:44:12;2.58;;;1.05;;
70605;SDS011;58173;52.500;5.494;2023-07-20T12:46:39;3.10;;;1.00;;
70605;SDS011;58173;52.500;5.494;2023-07-20T12:49:07;2.55;;;1.02;;
70605;SDS011;58173;52.500;5.494;2023-07-20T12:51:34;1.10;;;0.90;;
70605;SDS011;58173;52.500;5.494;2023-07-20T12:54:02;2.45;;;1.10;;
70605;SDS011;58173;52.500;5.494;2023-07-20T12:56:29;2.38;;;0.93;;
70605;SDS011;58173;52.500;5.494;2023-07-20T12:58:59;1.85;;;1.02;;
70605;SDS011;58173;52.500;5.494;2023-07-20T13:01:29;4.90;;;1.65;;
70605;SDS011;58173;52.500;5.494;2023-07-20T13:03:56;2.78;;;1.40;;
70605;SDS011;58173;52.500;5.494;2023-07-20T13:06:26;2.00;;;0.80;;
70605;SDS011;58173;52.500;5.494;2023-07-20T13:08:54;1.88;;;1.25;;
70605;SDS011;58173;52.500;5.494;2023-07-20T13:11:23;2.60;;;1.10;;
70605;SDS011;58173;52.500;5.494;2023-07-20T13:13:51;2.08;;;1.05;;
70605;SDS011;58173;52.500;5.494;2023-07-20T13:16:18;1.67;;;1.10;;
70605;SDS011;58173;52.500;5.494;2023-07-20T13:18:47;2.63;;;1.10;;
70605;SDS011;58173;52.500;5.494;2023-07-20T13:21:15;3.95;;;1.10;;
70605;SDS011;58173;52.500;5.494;2023-07-20T13:23:48;2.80;;;1.10;;
70605;SDS011;58173;52.500;5.494;2023-07-20T13:26:16;1.77;;;0.85;;
70605;SDS011;58173;52.500;5.494;2023-07-20T13:28:43;3.42;;;1.00;;
70605;SDS011;58173;52.500;5.494;2023-07-20T13:31:10;2.63;;;1.20;;
70605;SDS011;58173;52.500;5.494;2023-07-20T13:33:46;2.05;;;1.23;;
70605;SDS011;58173;52.500;5.494;2023-07-20T13:38:56;2.55;;;1.30;;
70605;SDS011;58173;52.500;5.494;2023-07-20T13:41:25;2.50;;;1.55;;
70605;SDS011;58173;52.500;5.494;2023-07-20T13:43:56;2.78;;;1.83;;
70605;SDS011;58173;52.500;5.494;2023-07-20T13:46:24;2.53;;;1.50;;
70605;SDS011;58173;52.500;5.494;2023-07-20T13:48:54;3.10;;;1.25;;
70605;SDS011;58173;52.500;5.494;2023-07-20T13:51:24;2.22;;;1.10;;
70605;SDS011;58173;52.500;5.494;2023-07-20T13:53:53;3.28;;;1.13;;
70605;SDS011;58173;52.500;5.494;2023-07-20T13:56:20;3.17;;;1.30;;
70605;SDS011;58173;52.500;5.494;2023-07-20T13:58:48;2.78;;;1.20;;
70605;SDS011;58173;52.500;5.494;2023-07-20T14:01:16;3.13;;;1.13;;
70605;SDS011;58173;52.500;5.494;2023-07-20T14:03:52;1.15;;;0.90;;
70605;SDS011;58173;52.500;5.494;2023-07-20T14:06:20;2.80;;;1.10;;
70605;SDS011;58173;52.500;5.494;2023-07-20T14:08:50;1.85;;;0.95;;
70605;SDS011;58173;52.500;5.494;2023-07-20T14:11:19;2.55;;;1.00;;
70605;SDS011;58173;52.500;5.494;2023-07-20T14:13:51;2.25;;;1.05;;
70605;SDS011;58173;52.500;5.494;2023-07-20T14:18:49;3.72;;;1.00;;
70605;SDS011;58173;52.500;5.494;2023-07-20T14:21:17;1.58;;;0.93;;
70605;SDS011;58173;52.500;5.494;2023-07-20T14:23:46;2.38;;;0.90;;
70605;SDS011;58173;52.500;5.494;2023-07-20T14:26:19;2.03;;;0.93;;
70605;SDS011;58173;52.500;5.494;2023-07-20T14:28:49;2.53;;;0.90;;
70605;SDS011;58173;52.500;5.494;2023-07-20T14:31:17;2.03;;;0.90;;
70605;SDS011;58173;52.500;5.494;2023-07-20T14:33:46;2.00;;;1.00;;
70605;SDS011;58173;52.500;5.494;2023-07-20T14:36:14;1.30;;;0.90;;
70605;SDS011;58173;52.500;5.494;2023-07-20T14:38:46;2.97;;;1.00;;
70605;SDS011;58173;52.500;5.494;2023-07-20T14:41:15;2.70;;;0.88;;
70605;SDS011;58173;52.500;5.494;2023-07-20T14:44:37;1.73;;;0.93;;
70605;SDS011;58173;52.500;5.494;2023-07-20T14:47:04;2.92;;;1.10;;
70605;SDS011;58173;52.500;5.494;2023-07-20T14:49:39;3.05;;;1.08;;
70605;SDS011;58173;52.500;5.494;2023-07-20T14:52:07;1.98;;;1.10;;
70605;SDS011;58173;52.500;5.494;2023-07-20T14:54:39;2.55;;;1.10;;
70605;SDS011;58173;52.500;5.494;2023-07-20T14:57:06;3.25;;;1.10;;
70605;SDS011;58173;52.500;5.494;2023-07-20T14:59:40;2.13;;;1.10;;
70605;SDS011;58173;52.500;5.494;2023-07-20T15:02:11;2.05;;;1.00;;
70605;SDS011;58173;52.500;5.494;2023-07-20T15:04:45;3.13;;;1.40;;
70605;SDS011;58173;52.500;5.494;2023-07-20T15:07:12;3.28;;;1.00;;
70605;SDS011;58173;52.500;5.494;2023-07-20T15:09:40;2.05;;;1.10;;
70605;SDS011;58173;52.500;5.494;2023-07-20T15:12:11;2.08;;;1.10;;
70605;SDS011;58173;52.500;5.494;2023-07-20T15:14:42;3.35;;;1.05;;
70605;SDS011;58173;52.500;5.494;2023-07-20T15:17:10;2.90;;;1.10;;
70605;SDS011;58173;52.500;5.494;2023-07-20T15:19:39;4.13;;;1.30;;
70605;SDS011;58173;52.500;5.494;2023-07-20T15:22:07;1.70;;;0.93;;
70605;SDS011;58173;52.500;5.494;2023-07-20T15:24:35;2.05;;;1.10;;
70605;SDS011;58173;52.500;5.494;2023-07-20T15:27:03;1.98;;;0.90;;
70605;SDS011;58173;52.500;5.494;2023-07-20T15:29:32;3.15;;;1.13;;
70605;SDS011;58173;52.500;5.494;2023-07-20T15:32:03;1.85;;;1.20;;
70605;SDS011;58173;52.500;5.494;2023-07-20T15:34:31;2.58;;;1.30;;
70605;SDS011;58173;52.500;5.494;2023-07-20T15:36:58;2.15;;;1.10;;
70605;SDS011;58173;52.500;5.494;2023-07-20T15:39:26;3.25;;;1.10;;
70605;SDS011;58173;52.500;5.494;2023-07-20T15:41:54;2.05;;;1.10;;
70605;SDS011;58173;52.500;5.494;2023-07-20T15:44:22;2.50;;;1.10;;
70605;SDS011;58173;52.500;5.494;2023-07-20T15:46:49;3.00;;;1.27;;
70605;SDS011;58173;52.500;5.494;2023-07-20T15:49:17;1.67;;;1.13;;
70605;SDS011;58173;52.500;5.494;2023-07-20T15:51:44;3.22;;;1.10;;
70605;SDS011;58173;52.500;5.494;2023-07-20T15:54:13;2.55;;;1.10;;
70605;SDS011;58173;52.500;5.494;2023-07-20T15:56:43;3.20;;;1.00;;
70605;SDS011;58173;52.500;5.494;2023-07-20T15:59:13;2.15;;;1.02;;
70605;SDS011;58173;52.500;5.494;2023-07-20T16:01:42;2.42;;;0.90;;
70605;SDS011;58173;52.500;5.494;2023-07-20T16:04:13;2.00;;;0.90;;
70605;SDS011;58173;52.500;5.494;2023-07-20T16:06:44;2.63;;;1.20;;
70605;SDS011;58173;52.500;5.494;2023-07-20T16:09:12;1.85;;;0.90;;
70605;SDS011;58173;52.500;5.494;2023-07-20T16:11:41;2.10;;;1.10;;
70605;SDS011;58173;52.500;5.494;2023-07-20T16:14:11;2.33;;;1.02;;
70605;SDS011;58173;52.500;5.494;2023-07-20T16:16:38;1.83;;;1.10;;
70605;SDS011;58173;52.500;5.494;2023-07-20T16:19:06;3.25;;;0.82;;
70605;SDS011;58173;52.500;5.494;2023-07-20T16:21:34;1.33;;;0.90;;
70605;SDS011;58173;52.500;5.494;2023-07-20T16:24:02;1.80;;;0.95;;
70605;SDS011;58173;52.500;5.494;2023-07-20T16:26:30;2.45;;;0.98;;
70605;SDS011;58173;52.500;5.494;2023-07-20T16:28:57;3.55;;;0.80;;
70605;SDS011;58173;52.500;5.494;2023-07-20T16:31:27;2.90;;;1.00;;
70605;SDS011;58173;52.500;5.494;2023-07-20T16:33:55;2.40;;;1.00;;
70605;SDS011;58173;52.500;5.494;2023-07-20T16:36:31;1.65;;;0.80;;
70605;SDS011;58173;52.500;5.494;2023-07-20T16:39:04;1.70;;;1.00;;
70605;SDS011;58173;52.500;5.494;2023-07-20T16:41:34;2.92;;;0.93;;
70605;SDS011;58173;52.500;5.494;2023-07-20T16:44:05;1.45;;;0.80;;
70605;SDS011;58173;52.500;5.494;2023-07-20T16:46:33;2.78;;;0.80;;
70605;SDS011;58173;52.500;5.494;2023-07-20T16:49:06;2.35;;;0.88;;
70605;SDS011;58173;52.500;5.494;2023-07-20T16:51:35;1.80;;;0.80;;
70605;SDS011;58173;52.500;5.494;2023-07-20T16:54:02;2.08;;;0.90;;
70605;SDS011;58173;52.500;5.494;2023-07-20T16:56:33;2.85;;;0.90;;
70605;SDS011;58173;52.500;5.494;2023-07-20T16:59:04;1.17;;;0.70;;
70605;SDS011;58173;52.500;5.494;2023-07-20T17:01:31;0.95;;;0.80;;
70605;SDS011;58173;52.500;5.494;2023-07-20T17:03:59;2.28;;;0.85;;
70605;SDS011;58173;52.500;5.494;2023-07-20T17:06:27;3.25;;;0.95;;
70605;SDS011;58173;52.500;5.494;2023-07-20T17:08:54;1.63;;;0.80;;
70605;SDS011;58173;52.500;5.494;2023-07-20T17:11:29;2.50;;;0.77;;
70605;SDS011;58173;52.500;5.494;2023-07-20T17:13:56;1.70;;;0.90;;
70605;SDS011;58173;52.500;5.494;2023-07-20T17:16:23;2.53;;;0.93;;
70605;SDS011;58173;52.500;5.494;2023-07-20T17:18:51;0.70;;;0.68;;
70605;SDS011;58173;52.500;5.494;2023-07-20T17:21:18;1.17;;;0.73;;
70605;SDS011;58173;52.500;5.494;2023-07-20T17:23:48;1.70;;;0.82;;
70605;SDS011;58173;52.500;5.494;2023-07-20T17:26:18;1.17;;;0.73;;
70605;SDS011;58173;52.500;5.494;2023-07-20T17:28:48;3.80;;;0.85;;
70605;SDS011;58173;52.500;5.494;2023-07-20T17:31:16;2.15;;;0.80;;
70605;SDS011;58173;52.500;5.494;2023-07-20T17:33:46;2.20;;;0.90;;
70605;SDS011;58173;52.500;5.494;2023-07-20T17:36:13;1.20;;;0.80;;
70605;SDS011;58173;52.500;5.494;2023-07-20T17:38:46;2.80;;;0.90;;
70605;SDS011;58173;52.500;5.494;2023-07-20T17:41:13;2.05;;;1.00;;
70605;SDS011;58173;52.500;5.494;2023-07-20T17:43:41;2.45;;;0.93;;